Monticello, Maine
46° 20' 20"N, 67° 53' 10"W, Elevation 575 ft.
Eastern Time

Hourly observations for the last 48 hours

Date

Time

Temperature (F) Humi-
dity
(%)
Wind
(mph)
Pressure Rain (in) Sun
(W/m2)
UV ET
(in)
Air Dew 6 Hour 1 Hr 3 Hr 6 Hr Day
Alt
(in)
Sea
Level
(mb)
Max Min
17 16:00 19.7 8.1 60 WNW 5 G 17 30.15 1021.1 0.00 49 0.0 0.035
17 15:00 22.5 9.9 58 WNW 7 G 17 30.12 1019.9 0.00 272 0.7 0.030
17 14:00 23.8 13.8 65 NNW 3 G 13 30.08 1018.8 0.00 167 1.5 0.024
17 13:00 21.0 13.1 25.3 20.6 71 N 8 G 13 30.07 1018.3 0.00 369 1.8 0.020
17 12:00 22.9 14.9 71 NNW 9 G 14 30.05 1017.8 0.00 406 2.2 0.015
17 11:00 23.6 16.8 75 NW 6 G 15 30.02 1016.7 0.00 283 2.0 0.010
17 10:00 24.7 17.9 75 NNE 6 G 16 29.99 1015.7 0.00 483 1.8 0.004
17 09:00 24.5 19.2 80 N 3 G 11 30.00 1015.8 0.00 401 1.0 0.001
17 08:00 23.3 19.2 84 WNW 6 G 11 29.95 1014.4 0.00 262 0.0 0.000
17 07:00 21.3 19.1 21.4 20.8 91 W 1 G 2 29.90 1012.6 0.00 19 0.0 0.000
17 06:00 21.3 19.1 91 Calm 29.88 1011.8 0.00 0 0.0 0.000
17 05:00 21.1 18.9 91 SSE 0 G 2 29.86 1011.3 0.00 0 0.0 0.000
17 04:00 21.3 19.1 91 SSE 1 G 4 29.85 1011.0 0.00 0 0.0 0.000
17 03:00 20.8 18.6 91 SSW 0 G 1 29.86 1011.2 0.00 0 0.0 0.000
17 02:00 21.0 18.8 91 Calm 29.86 1011.2 0.00 0 0.0 0.000
17 01:00 20.8 18.6 26.6 19.7 91 SSW 0 G 1 29.86 1011.4 0.00 0 0.0 0.000
17 00:00 19.7 17.2 90 Calm 29.88 1011.7 0.00 0 0.0 0.021
16 23:00 20.0 17.3 89 SSW 0 G 3 29.87 1011.5 0.00 0 0.0 0.021
16 22:00 22.4 19.7 89 SSW 0 G 3 29.87 1011.4 0.00 0 0.0 0.021
16 21:00 25.1 22.6 90 S 1 G 2 29.88 1012.0 0.00 0 0.0 0.021
16 20:00 25.8 23.0 89 S 2 G 5 29.88 1012.0 0.00 0 0.0 0.021
16 19:00 26.6 23.5 30.7 26.6 88 S 2 G 6 29.88 1011.8 0.00 0 0.0 0.021
16 18:00 26.6 23.5 88 S 1 G 3 29.87 1011.7 0.00 0 0.0 0.021
16 17:00 27.2 23.6 86 S 2 G 7 29.86 1011.4 0.00 0 0.0 0.020
16 16:00 28.4 24.2 84 S 5 G 12 29.86 1011.3 0.00 69 0.0 0.019
16 15:00 30.0 25.2 82 S 4 G 12 29.85 1011.0 0.00 123 0.5 0.016
16 14:00 30.0 25.5 83 SSW 6 G 12 29.86 1011.2 0.00 301 1.3 0.013
16 13:00 29.0 24.5 29.0 15.1 83 SSE 5 G 13 29.86 1011.4 0.00 179 1.1 0.010
16 12:00 27.2 23.3 85 S 4 G 11 29.89 1012.1 0.00 195 1.3 0.007
16 11:00 24.7 21.1 86 S 4 G 11 29.90 1012.7 0.00 262 1.8 0.004
16 10:00 22.1 18.6 86 SSW 3 G 6 29.92 1013.3 0.00 216 1.2 0.002
16 09:00 19.4 15.9 86 SSW 5 G 13 29.92 1013.4 0.00 155 0.6 0.000
16 08:00 15.9 12.7 87 SSE 4 G 10 29.93 1013.6 0.00 81 0.0 0.000
16 07:00 15.2 12.0 16.7 12.6 87 S 4 G 6 29.92 1013.4 0.00 7 0.0 0.000
16 06:00 15.4 12.0 86 S 4 G 10 29.92 1013.4 0.00 0 0.0 0.000
16 05:00 16.2 11.7 82 S 5 G 14 29.94 1013.9 0.00 0 0.0 0.000
16 04:00 16.1 11.3 81 S 3 G 12 29.93 1013.7 0.00 0 0.0 0.000
16 03:00 16.7 12.2 82 SSE 6 G 10 29.94 1013.8 0.00 0 0.0 0.000
16 02:00 14.6 9.8 81 S 11 G 22 29.98 1015.1 0.00 0 0.0 0.000
16 01:00 12.6 8.2 12.6 8.4 82 SSW 8 G 17 30.02 1016.5 0.00 0 0.0 0.000
16 00:00 8.8 4.7 83 SSE 7 G 12 30.02 1016.6 0.00 0 0.0 0.027
15 23:00 9.0 4.6 82 SSE 3 G 5 30.05 1017.6 0.00 0 0.0 0.027
15 22:00 10.0 5.6 82 S 5 G 7 30.08 1018.7 0.00 0 0.0 0.027
15 21:00 10.7 5.7 80 S 9 G 15 30.11 1019.6 0.00 0 0.0 0.027
15 20:00 10.7 5.7 80 S 5 G 13 30.15 1021.0 0.00 0 0.0 0.027
15 19:00 11.1 6.4 16.7 11.1 81 S 4 G 10 30.17 1021.7 0.00 0 0.0 0.027
15 18:00 11.4 7.0 82 SSE 4 G 12 30.21 1023.0 0.00 0 0.0 0.027
15 17:00 12.8 8.3 82 S 5 G 11 30.23 1023.9 0.00 0 0.0 0.027
15 16:00 14.4 9.4 80 S 8 G 12 30.24 1024.2 0.00 76 0.0 0.026
15 15:00 16.5 11.4 80 S 10 G 16 30.26 1024.8 0.00 181 0.7 0.023
15 14:00 16.4 11.6 81 SSW 8 G 13 30.28 1025.4 0.00 380 1.6 0.019
15 13:00 15.9 10.8 16.2 -19.6 80 SW 8 G 15 30.31 1026.4 0.00 403 2.3 0.014
15 12:00 15.9 11.4 82 SSW 6 G 12 30.35 1027.9 0.00 573 3.1 0.009
15 11:00 11.4 6.4 80 WSW 2 G 8 30.40 1029.5 0.00 564 2.8 0.005
15 10:00 6.0 0.3 77 W 6 G 13 30.43 1030.6 0.00 517 2.0 0.002
15 09:00 -0.4 -5.9 77 SW 6 G 11 30.45 1031.4 0.00 388 1.1 0.000
15 08:00 -13.8 -19.7 74 W 1 G 4 30.47 1032.0 0.00 253 0.0 0.000
15 07:00 -19.3 -26.3 -13.0 -19.3 69 WNW 0 G 1 30.47 1031.9 0.00 19 0.0 0.000
15 06:00 -17.5 -24.1 71 Calm 30.45 1031.4 0.00 0 0.0 0.000
15 05:00 -16.6 -23.2 71 WNW 0 G 2 30.45 1031.2 0.00 0 0.0 0.000
15 04:00 -15.8 -22.2 72 WNW 1 G 5 30.45 1031.1 0.00 0 0.0 0.000
15 03:00 -15.6 -22.5 70 W 0 G 3 30.44 1030.9 0.00 0 0.0 0.000
15 02:00 -15.1 -21.8 71 W 3 G 7 30.44 1030.9 0.00 0 0.0 0.000
15 01:00 -13.0 -19.5 -4.6 -13.0 72 WSW 1 G 4 30.42 1030.3 0.00 0 0.0 0.000
15 00:00 -12.0 -18.5 72 NW 2 G 4 30.42 1030.3 0.00 0 0.0 0.021
14 23:00 -10.5 -16.8 73 W 2 G 5 30.41 1029.8 0.00 0 0.0 0.021
14 22:00 -8.2 -14.3 74 N 0 G 2 30.39 1029.3 0.00 0 0.0 0.021
14 21:00 -5.2 -11.1 75 NNW 2 G 4 30.36 1028.2 0.00 0 0.0 0.021
14 20:00 -5.6 -11.5 75 W 0 G 4 30.35 1027.7 0.00 0 0.0 0.021
14 19:00 -4.6 -10.5 5.4 -4.8 75 NW 3 G 14 30.31 1026.5 0.00 0 0.0 0.021
14 18:00 -2.0 -7.7 76 NW 1 G 4 30.28 1025.4 0.00 0 0.0 0.021
14 17:00 1.1 -5.0 75 NW 2 G 12 30.23 1023.8 0.00 5 0.0 0.021

Data generated by WxSolution Version 1.9.1.7, Build 2018.11.24.